createdAt,value
2018-06-15T00:02:18.053Z,17.00
2018-06-15T00:07:20.175Z,17.00
2018-06-15T00:12:22.295Z,17.00
2018-06-15T00:17:24.421Z,16.90
2018-06-15T00:22:26.544Z,16.70
2018-06-15T00:27:28.634Z,16.60
2018-06-15T00:32:30.753Z,16.50
2018-06-15T00:37:32.933Z,16.50
2018-06-15T00:42:35.073Z,16.30
2018-06-15T00:47:37.164Z,16.30
2018-06-15T00:52:39.304Z,16.40
2018-06-15T00:57:43.650Z,16.30
2018-06-15T01:02:45.969Z,16.30
2018-06-15T01:07:48.089Z,16.30
2018-06-15T01:12:50.210Z,16.30
2018-06-15T01:17:52.333Z,16.20
2018-06-15T01:22:54.458Z,16.00
2018-06-15T01:27:56.585Z,16.10
2018-06-15T01:32:58.751Z,16.20
2018-06-15T01:38:00.868Z,16.10
2018-06-15T01:43:02.993Z,16.10
2018-06-15T01:48:05.338Z,16.10
2018-06-15T01:53:07.601Z,16.00
2018-06-15T01:58:09.701Z,16.00
2018-06-15T02:03:11.846Z,15.90
2018-06-15T02:08:14.521Z,16.00
2018-06-15T02:13:16.627Z,15.90
2018-06-15T02:18:18.804Z,15.80
2018-06-15T02:23:20.958Z,15.80
2018-06-15T02:28:23.162Z,15.60
2018-06-15T02:33:25.330Z,15.60
2018-06-15T02:38:27.675Z,15.60
2018-06-15T02:43:29.829Z,15.40
2018-06-15T02:48:31.990Z,15.30
2018-06-15T02:53:34.142Z,15.40
2018-06-15T02:58:36.305Z,15.30
2018-06-15T03:03:38.526Z,15.30
2018-06-15T03:08:40.671Z,15.30
2018-06-15T03:13:42.874Z,15.30
2018-06-15T03:18:45.026Z,15.40
2018-06-15T03:23:47.175Z,15.50
2018-06-15T03:28:49.323Z,15.40
2018-06-15T03:33:52.134Z,15.50
2018-06-15T03:38:54.282Z,15.40
2018-06-15T03:43:56.817Z,15.40
2018-06-15T03:48:58.959Z,15.50
2018-06-15T03:54:01.642Z,15.50
2018-06-15T03:59:04.088Z,15.60
2018-06-15T04:04:06.217Z,15.60
2018-06-15T04:09:09.103Z,15.70
2018-06-15T04:14:11.258Z,15.70
2018-06-15T04:19:13.425Z,15.70
2018-06-15T04:24:15.573Z,15.60
2018-06-15T04:29:17.713Z,15.70
2018-06-15T04:34:19.935Z,15.90
2018-06-15T04:39:22.146Z,15.90
2018-06-15T04:44:24.322Z,15.70
2018-06-15T04:49:26.614Z,15.80
2018-06-15T04:54:28.802Z,15.80
2018-06-15T04:59:31.050Z,15.80
2018-06-15T05:04:34.016Z,16.00
2018-06-15T05:09:36.194Z,16.10
2018-06-15T05:14:38.402Z,16.20
2018-06-15T05:19:40.581Z,16.30
2018-06-15T05:24:42.769Z,16.40
2018-06-15T05:29:44.926Z,16.40
2018-06-15T05:34:47.066Z,16.50
2018-06-15T05:39:49.219Z,16.50
2018-06-15T05:44:51.549Z,16.50
2018-06-15T05:49:53.710Z,16.50
2018-06-15T05:54:55.864Z,16.70
2018-06-15T05:59:58.000Z,16.80
2018-06-15T06:05:00.187Z,17.00
2018-06-15T06:10:02.427Z,16.90
2018-06-15T06:15:04.702Z,16.90
2018-06-15T06:20:07.897Z,17.00
2018-06-15T06:25:10.120Z,17.10
2018-06-15T06:30:12.278Z,17.10
2018-06-15T06:35:14.490Z,17.10
2018-06-15T06:40:16.651Z,17.20
2018-06-15T06:45:18.909Z,17.20
2018-06-15T06:50:21.098Z,17.30
2018-06-15T06:55:23.278Z,17.40
2018-06-15T07:00:26.412Z,17.40
2018-06-15T07:05:28.637Z,17.40
2018-06-15T07:10:30.849Z,17.60
2018-06-15T07:15:33.058Z,17.40
2018-06-15T07:20:35.258Z,17.60
2018-06-15T07:25:37.438Z,17.90
2018-06-15T07:30:39.601Z,18.70
2018-06-15T07:35:41.822Z,18.80
2018-06-15T07:40:44.094Z,19.00
2018-06-15T07:45:46.233Z,19.50
2018-06-15T07:50:48.387Z,19.40
2018-06-15T07:55:50.526Z,19.70
2018-06-15T08:00:52.851Z,19.80
2018-06-15T08:05:55.029Z,19.60
2018-06-15T08:10:57.201Z,20.30
2018-06-15T08:15:59.347Z,20.20
2018-06-15T08:21:01.514Z,20.50
2018-06-15T08:26:03.874Z,21.10
2018-06-15T08:31:06.036Z,21.50
2018-06-15T08:36:08.198Z,21.90
2018-06-15T08:41:10.342Z,22.10
2018-06-15T08:46:12.513Z,21.80
2018-06-15T08:51:14.693Z,21.10
2018-06-15T08:56:16.909Z,20.90
2018-06-15T09:01:19.081Z,20.80
2018-06-15T09:06:21.225Z,20.00
2018-06-15T09:11:23.376Z,20.40
2018-06-15T09:16:25.561Z,20.50
2018-06-15T09:21:27.882Z,20.80
2018-06-15T09:26:30.034Z,21.50
2018-06-15T09:31:32.171Z,21.80
2018-06-15T09:36:34.352Z,22.00
2018-06-15T09:41:36.505Z,21.70
2018-06-15T09:46:38.737Z,21.40
2018-06-15T09:51:40.864Z,21.50
2018-06-15T09:56:43.036Z,21.60
2018-06-15T10:01:45.327Z,21.60
2018-06-15T10:06:47.585Z,21.60
2018-06-15T10:11:49.750Z,21.20
2018-06-15T10:16:51.922Z,21.50
2018-06-15T10:21:54.067Z,21.80
2018-06-15T10:26:56.245Z,21.80
2018-06-15T10:31:58.415Z,21.90
2018-06-15T10:37:00.582Z,21.90
2018-06-15T10:42:02.762Z,22.10
2018-06-15T10:47:04.920Z,22.00
2018-06-15T10:52:07.054Z,22.40
2018-06-15T10:57:09.559Z,22.80
2018-06-15T11:02:11.726Z,22.70
2018-06-15T11:07:13.880Z,22.90
2018-06-15T11:12:16.040Z,22.80
2018-06-15T11:17:18.178Z,22.80
2018-06-15T11:22:20.329Z,22.40
2018-06-15T11:27:22.486Z,22.60
2018-06-15T11:32:24.677Z,22.60
2018-06-15T11:37:26.869Z,22.80
2018-06-15T11:42:29.065Z,22.80
2018-06-15T11:47:31.246Z,22.60
2018-06-15T11:52:33.406Z,22.50
2018-06-15T11:57:35.585Z,22.80
2018-06-15T12:02:37.803Z,22.50
2018-06-15T12:07:39.977Z,22.70
2018-06-15T12:12:42.133Z,22.90
2018-06-15T12:17:44.413Z,23.00
2018-06-15T12:22:46.593Z,23.30
2018-06-15T12:27:48.765Z,23.30
2018-06-15T12:32:50.945Z,23.60
2018-06-15T12:37:53.494Z,23.70
2018-06-15T12:42:55.649Z,23.60
2018-06-15T12:47:57.774Z,23.80
2018-06-15T12:52:59.917Z,23.80
2018-06-15T12:58:02.066Z,23.90
2018-06-15T13:03:04.240Z,24.00
2018-06-15T13:08:06.436Z,24.00
2018-06-15T13:13:08.571Z,24.00
2018-06-15T13:18:10.731Z,23.60
2018-06-15T13:23:12.903Z,23.50
2018-06-15T13:28:15.046Z,23.90
2018-06-15T13:33:17.233Z,24.00
2018-06-15T13:38:19.410Z,23.50
2018-06-15T13:43:21.593Z,23.30
2018-06-15T13:48:23.773Z,23.30
2018-06-15T13:53:25.958Z,23.00
2018-06-15T13:58:28.158Z,22.90
2018-06-15T14:03:30.342Z,22.70
2018-06-15T14:08:32.526Z,22.90
2018-06-15T14:13:34.715Z,22.90
2018-06-15T14:18:37.042Z,22.70
2018-06-15T14:23:39.288Z,22.90
2018-06-15T14:28:41.479Z,22.70
2018-06-15T14:33:43.682Z,22.90
2018-06-15T14:38:45.855Z,22.90
2018-06-15T14:43:48.066Z,22.70
2018-06-15T14:48:50.228Z,22.80
2018-06-15T14:53:52.402Z,22.20
2018-06-15T14:58:54.570Z,21.90
2018-06-15T15:03:56.734Z,22.20
2018-06-15T15:08:58.890Z,22.10
2018-06-15T15:14:01.105Z,22.00
2018-06-15T15:19:03.804Z,22.20
2018-06-15T15:24:06.012Z,22.40
2018-06-15T15:29:08.167Z,22.40
2018-06-15T15:34:10.361Z,22.30
2018-06-15T15:39:12.525Z,22.40
2018-06-15T15:44:14.705Z,22.50
2018-06-15T15:49:16.882Z,22.60
2018-06-15T15:54:19.074Z,22.70
2018-06-15T15:59:21.231Z,22.40
2018-06-15T16:04:23.429Z,22.30
2018-06-15T16:09:25.583Z,22.20
2018-06-15T16:14:27.761Z,22.40
2018-06-15T16:19:29.922Z,22.40
2018-06-15T16:24:32.086Z,22.50
2018-06-15T16:34:36.802Z,22.10
2018-06-15T16:39:39.046Z,21.90
2018-06-15T16:44:41.229Z,21.90
2018-06-15T16:49:43.418Z,21.90
2018-06-15T16:54:45.940Z,21.90
2018-06-15T16:59:48.137Z,21.70
2018-06-15T17:04:50.306Z,21.80
2018-06-15T17:09:52.501Z,21.70
2018-06-15T17:14:54.621Z,21.80
2018-06-15T17:19:56.785Z,21.70
2018-06-15T17:24:59.081Z,21.60
2018-06-15T17:30:01.265Z,21.70
2018-06-15T17:35:03.512Z,21.70
2018-06-15T17:40:05.749Z,21.70
2018-06-15T17:45:07.922Z,21.70
2018-06-15T17:50:10.103Z,21.60
2018-06-15T17:55:12.402Z,21.60
2018-06-15T18:00:14.573Z,21.60
2018-06-15T18:05:16.759Z,21.60
2018-06-15T18:10:18.920Z,21.50
2018-06-15T18:15:21.115Z,21.40
2018-06-15T18:20:23.285Z,21.20
2018-06-15T18:25:25.486Z,21.10
2018-06-15T18:30:28.804Z,21.10
2018-06-15T18:35:31.555Z,21.10
2018-06-15T18:40:33.720Z,21.10
2018-06-15T18:45:35.910Z,21.00
2018-06-15T18:50:38.076Z,21.00
2018-06-15T18:55:40.378Z,21.00
2018-06-15T19:00:42.552Z,21.00
2018-06-15T19:05:44.766Z,20.90
2018-06-15T19:10:46.942Z,20.80
2018-06-15T19:15:49.168Z,20.80
2018-06-15T19:20:51.353Z,20.80
2018-06-15T19:25:53.525Z,20.70
2018-06-15T19:30:55.758Z,20.70
2018-06-15T19:35:58.000Z,20.70
2018-06-15T19:46:02.478Z,20.50
2018-06-15T19:51:04.930Z,20.50
2018-06-15T19:56:07.150Z,20.40
2018-06-15T20:01:09.526Z,20.30
2018-06-15T20:06:11.722Z,20.30
2018-06-15T20:11:13.951Z,20.20
2018-06-15T20:16:16.168Z,20.20
2018-06-15T20:21:18.361Z,20.10
2018-06-15T20:26:20.577Z,20.10
2018-06-15T20:31:22.768Z,20.00
2018-06-15T20:36:25.037Z,20.00
2018-06-15T20:41:27.181Z,19.90
2018-06-15T20:46:29.383Z,19.90
2018-06-15T20:51:31.590Z,19.80
2018-06-15T20:56:33.763Z,19.70
2018-06-15T21:01:35.962Z,19.70
2018-06-15T21:06:39.118Z,19.60
2018-06-15T21:11:41.270Z,19.60
2018-06-15T21:16:43.458Z,19.60
2018-06-15T21:21:45.637Z,19.60
2018-06-15T21:26:47.793Z,19.60
2018-06-15T21:31:50.004Z,19.50
2018-06-15T21:36:52.161Z,19.40
2018-06-15T21:41:54.289Z,19.40
2018-06-15T21:46:56.474Z,19.40
2018-06-15T21:51:58.633Z,19.30
2018-06-15T21:57:00.784Z,19.20
2018-06-15T22:02:02.965Z,19.10
2018-06-15T22:07:05.136Z,18.90
2018-06-15T22:12:07.303Z,18.90
2018-06-15T22:17:09.431Z,18.80
2018-06-15T22:22:11.587Z,18.70
2018-06-15T22:27:13.729Z,18.60
2018-06-15T22:32:16.051Z,18.60
2018-06-15T22:37:18.178Z,18.60
2018-06-15T22:42:20.311Z,18.60
2018-06-15T22:47:22.473Z,18.50
2018-06-15T22:52:24.614Z,18.40
2018-06-15T22:57:26.756Z,18.30
2018-06-15T23:02:28.901Z,18.20
2018-06-15T23:07:31.069Z,18.20
2018-06-15T23:12:33.248Z,17.90
2018-06-15T23:17:35.413Z,17.60
2018-06-15T23:22:37.650Z,17.70
2018-06-15T23:27:39.793Z,17.60
2018-06-15T23:32:41.977Z,17.60
2018-06-15T23:37:44.138Z,17.50
2018-06-15T23:42:46.321Z,17.50
2018-06-15T23:47:48.983Z,17.40
2018-06-15T23:52:51.573Z,17.30
2018-06-15T23:57:53.749Z,17.20
